createdAt,value
2017-05-21T00:00:37.723Z,13.94
2017-05-21T00:01:39.148Z,13.87
2017-05-21T00:02:40.723Z,13.80
2017-05-21T00:03:42.844Z,13.88
2017-05-21T00:04:44.190Z,13.83
2017-05-21T00:05:45.557Z,13.77
2017-05-21T00:06:46.925Z,13.88
2017-05-21T00:07:48.322Z,13.87
2017-05-21T00:08:49.699Z,13.87
2017-05-21T00:09:51.062Z,13.84
2017-05-21T00:10:52.451Z,13.84
2017-05-21T00:11:53.825Z,13.84
2017-05-21T00:12:55.296Z,13.80
2017-05-21T00:13:56.653Z,13.81
2017-05-21T00:14:58.011Z,13.84
2017-05-21T00:15:59.391Z,13.84
2017-05-21T00:17:00.761Z,13.83
2017-05-21T00:18:02.119Z,13.70
2017-05-21T00:19:03.501Z,13.73
2017-05-21T00:20:04.952Z,13.71
2017-05-21T00:21:06.477Z,13.77
2017-05-21T00:22:07.835Z,13.74
2017-05-21T00:23:09.199Z,13.79
2017-05-21T00:24:10.585Z,13.74
2017-05-21T00:25:11.951Z,13.73
2017-05-21T00:26:13.342Z,13.73
2017-05-21T00:27:14.741Z,13.69
2017-05-21T00:28:16.200Z,13.65
2017-05-21T00:29:17.605Z,13.67
2017-05-21T00:30:18.960Z,13.65
2017-05-21T00:31:20.338Z,13.67
2017-05-21T00:32:21.649Z,13.76
2017-05-21T00:33:23.027Z,13.77
2017-05-21T00:34:25.216Z,13.76
2017-05-21T00:35:26.576Z,13.77
2017-05-21T00:36:27.973Z,13.74
2017-05-21T00:37:29.349Z,13.81
2017-05-21T00:38:30.717Z,13.87
2017-05-21T00:39:32.084Z,13.71
2017-05-21T00:40:33.509Z,13.69
2017-05-21T00:41:34.867Z,13.65
2017-05-21T00:42:36.234Z,13.76
2017-05-21T00:43:37.590Z,13.65
2017-05-21T00:44:38.964Z,13.69
2017-05-21T00:45:42.279Z,13.70
2017-05-21T00:46:45.357Z,13.76
2017-05-21T00:47:46.718Z,13.70
2017-05-21T00:48:48.085Z,13.76
2017-05-21T00:49:49.451Z,13.83
2017-05-21T00:50:50.822Z,13.80
2017-05-21T00:51:52.179Z,13.80
2017-05-21T00:52:54.314Z,13.76
2017-05-21T00:53:55.675Z,13.70
2017-05-21T00:54:57.817Z,13.79
2017-05-21T00:55:59.223Z,13.76
2017-05-21T00:57:00.581Z,13.77
2017-05-21T00:58:01.940Z,13.88
2017-05-21T00:59:03.321Z,13.80
2017-05-21T01:00:04.688Z,13.76
2017-05-21T01:01:06.053Z,13.84
2017-05-21T01:02:07.417Z,13.76
2017-05-21T01:03:08.797Z,13.71
2017-05-21T01:04:10.179Z,13.76
2017-05-21T01:05:11.600Z,13.79
2017-05-21T01:06:12.995Z,13.79
2017-05-21T01:07:15.288Z,13.73
2017-05-21T01:08:18.289Z,13.84
2017-05-21T01:09:19.682Z,13.84
2017-05-21T01:10:21.048Z,13.70
2017-05-21T01:11:22.417Z,13.71
2017-05-21T01:12:23.802Z,13.73
2017-05-21T01:13:25.175Z,13.71
2017-05-21T01:14:26.535Z,13.71
2017-05-21T01:15:27.909Z,13.73
2017-05-21T01:16:29.287Z,13.71
2017-05-21T01:17:30.678Z,13.73
2017-05-21T01:18:32.056Z,13.73
2017-05-21T01:19:33.474Z,13.77
2017-05-21T01:20:34.848Z,13.71
2017-05-21T01:21:36.227Z,13.59
2017-05-21T01:22:37.586Z,13.62
2017-05-21T01:23:39.020Z,13.58
2017-05-21T01:24:40.400Z,13.58
2017-05-21T01:25:41.770Z,13.59
2017-05-21T01:26:43.169Z,13.56
2017-05-21T01:27:44.533Z,13.55
2017-05-21T01:28:45.999Z,13.62
2017-05-21T01:29:48.325Z,13.58
2017-05-21T01:30:49.763Z,13.52
2017-05-21T01:31:51.140Z,13.44
2017-05-21T01:32:52.502Z,13.46
2017-05-21T01:33:53.866Z,13.62
2017-05-21T01:34:55.224Z,13.61
2017-05-21T01:35:56.590Z,13.58
2017-05-21T01:37:00.791Z,13.49
2017-05-21T01:38:02.170Z,13.59
2017-05-21T01:39:03.544Z,13.49
2017-05-21T01:40:04.950Z,13.49
2017-05-21T01:41:06.309Z,13.55
2017-05-21T01:42:07.733Z,13.25
2017-05-21T01:43:09.822Z,13.38
2017-05-21T01:44:11.211Z,13.40
2017-05-21T01:45:13.418Z,13.25
2017-05-21T01:46:14.780Z,13.25
2017-05-21T01:47:16.307Z,13.30
2017-05-21T01:48:17.631Z,13.33
2017-05-21T01:49:18.998Z,13.25
2017-05-21T01:50:20.428Z,13.32
2017-05-21T01:51:21.989Z,13.25
2017-05-21T01:52:23.486Z,13.29
2017-05-21T01:53:24.873Z,13.25
2017-05-21T01:54:26.242Z,13.40
2017-05-21T01:55:27.711Z,13.32
2017-05-21T01:56:29.080Z,13.38
2017-05-21T01:57:30.446Z,13.40
2017-05-21T01:58:31.831Z,13.46
2017-05-21T01:59:33.804Z,13.49
2017-05-21T02:00:35.301Z,13.46
2017-05-21T02:01:36.680Z,13.46
2017-05-21T02:02:38.183Z,13.49
2017-05-21T02:03:40.454Z,13.47
2017-05-21T02:04:41.858Z,13.55
2017-05-21T02:05:43.306Z,13.44
2017-05-21T02:06:44.712Z,13.46
2017-05-21T02:07:46.089Z,13.46
2017-05-21T02:08:47.438Z,13.44
2017-05-21T02:09:48.798Z,13.51
2017-05-21T02:10:50.155Z,13.56
2017-05-21T02:11:51.528Z,13.49
2017-05-21T02:12:52.921Z,13.49
2017-05-21T02:13:54.402Z,13.58
2017-05-21T02:14:55.763Z,13.58
2017-05-21T02:15:57.205Z,13.59
2017-05-21T02:16:58.537Z,13.58
2017-05-21T02:17:59.934Z,13.61
2017-05-21T02:19:01.292Z,13.56
2017-05-21T02:20:02.675Z,13.61
2017-05-21T02:21:04.093Z,13.59
2017-05-21T02:22:05.449Z,13.61
2017-05-21T02:23:06.809Z,13.58
2017-05-21T02:24:08.194Z,13.55
2017-05-21T02:25:09.569Z,13.58
2017-05-21T02:26:10.935Z,13.55
2017-05-21T02:27:12.332Z,13.62
2017-05-21T02:28:13.698Z,13.67
2017-05-21T02:29:15.077Z,13.59
2017-05-21T02:30:16.475Z,13.58
2017-05-21T02:31:18.382Z,13.59
2017-05-21T02:32:19.734Z,13.56
2017-05-21T02:33:21.783Z,13.55
2017-05-21T02:34:23.199Z,13.63
2017-05-21T02:35:24.506Z,13.54
2017-05-21T02:36:25.871Z,13.62
2017-05-21T02:37:29.779Z,13.59
2017-05-21T02:38:31.148Z,13.55
2017-05-21T02:39:32.543Z,13.74
2017-05-21T02:40:33.922Z,13.61
2017-05-21T02:41:35.317Z,13.70
2017-05-21T02:42:36.709Z,13.70
2017-05-21T02:43:38.088Z,13.74
2017-05-21T02:44:39.452Z,13.69
2017-05-21T02:45:40.807Z,13.79
2017-05-21T02:46:42.177Z,13.70
2017-05-21T02:47:43.549Z,13.74
2017-05-21T02:48:44.910Z,13.70
2017-05-21T02:49:46.284Z,13.65
2017-05-21T02:50:47.712Z,13.62
2017-05-21T02:51:49.108Z,13.61
2017-05-21T02:52:50.461Z,13.58
2017-05-21T02:53:51.854Z,13.61
2017-05-21T02:54:53.353Z,13.58
2017-05-21T02:55:54.762Z,13.58
2017-05-21T02:56:56.126Z,13.59
2017-05-21T02:57:57.598Z,13.61
2017-05-21T02:58:59.216Z,13.52
2017-05-21T03:00:00.561Z,13.56
2017-05-21T03:01:01.983Z,13.58
2017-05-21T03:02:03.439Z,13.54
2017-05-21T03:03:04.820Z,13.63
2017-05-21T03:04:06.180Z,13.58
2017-05-21T03:05:07.607Z,13.44
2017-05-21T03:06:08.975Z,13.61
2017-05-21T03:07:10.344Z,13.58
2017-05-21T03:08:12.614Z,13.58
2017-05-21T03:09:13.989Z,13.55
2017-05-21T03:10:15.358Z,13.63
2017-05-21T03:11:16.764Z,13.58
2017-05-21T03:12:18.831Z,13.52
2017-05-21T03:13:20.204Z,13.56
2017-05-21T03:14:22.500Z,13.59
2017-05-21T03:15:23.923Z,13.56
2017-05-21T03:16:25.572Z,13.52
2017-05-21T03:17:27.104Z,13.56
2017-05-21T03:18:28.475Z,13.59
2017-05-21T03:19:29.841Z,13.59
2017-05-21T03:20:33.775Z,13.56
2017-05-21T03:21:35.145Z,13.59
2017-05-21T03:22:36.515Z,13.62
2017-05-21T03:23:37.915Z,13.52
2017-05-21T03:24:39.314Z,13.55
2017-05-21T03:25:40.715Z,13.61
2017-05-21T03:26:42.116Z,13.58
2017-05-21T03:27:43.612Z,13.55
2017-05-21T03:28:44.981Z,13.55
2017-05-21T03:29:46.905Z,13.55
2017-05-21T03:30:48.263Z,13.52
2017-05-21T03:31:49.628Z,13.56
2017-05-21T03:32:50.989Z,13.59
2017-05-21T03:33:52.353Z,13.56
2017-05-21T03:34:53.748Z,13.61
2017-05-21T03:35:55.118Z,13.56
2017-05-21T03:36:56.473Z,13.58
2017-05-21T03:37:57.852Z,13.46
2017-05-21T03:38:59.218Z,13.55
2017-05-21T03:40:00.599Z,13.51
2017-05-21T03:41:01.966Z,13.62
2017-05-21T03:42:03.418Z,13.51
2017-05-21T03:43:04.803Z,13.55
2017-05-21T03:44:06.151Z,13.56
2017-05-21T03:45:07.604Z,13.62
2017-05-21T03:46:08.968Z,13.56
2017-05-21T03:47:10.415Z,13.58
2017-05-21T03:48:11.856Z,13.62
2017-05-21T03:49:13.254Z,13.62
2017-05-21T03:50:14.719Z,13.63
2017-05-21T03:51:16.134Z,13.70
2017-05-21T03:52:17.501Z,13.69
2017-05-21T03:53:18.868Z,13.67
2017-05-21T03:54:20.232Z,13.71
2017-05-21T03:55:22.306Z,13.71
2017-05-21T03:56:23.688Z,13.67
2017-05-21T03:57:25.087Z,13.73
2017-05-21T03:58:26.464Z,13.74
2017-05-21T03:59:27.851Z,13.71
2017-05-21T04:00:29.211Z,13.70
2017-05-21T04:01:30.662Z,13.70
2017-05-21T04:02:32.044Z,13.73
2017-05-21T04:03:33.458Z,13.62
2017-05-21T04:04:34.840Z,13.70
2017-05-21T04:05:36.227Z,13.61
2017-05-21T04:06:37.598Z,13.77
2017-05-21T04:07:38.985Z,13.69
2017-05-21T04:08:40.350Z,13.69
2017-05-21T04:09:41.749Z,13.62
2017-05-21T04:10:43.154Z,13.62
2017-05-21T04:11:44.539Z,13.70
2017-05-21T04:12:45.907Z,13.62
2017-05-21T04:13:47.275Z,13.70
2017-05-21T04:14:48.642Z,13.70
2017-05-21T04:15:52.785Z,13.70
2017-05-21T04:16:55.854Z,13.69
2017-05-21T04:17:57.224Z,13.70
2017-05-21T04:18:58.585Z,13.70
2017-05-21T04:19:59.950Z,13.69
2017-05-21T04:21:01.330Z,13.71
2017-05-21T04:22:02.707Z,13.76
2017-05-21T04:23:04.076Z,13.69
2017-05-21T04:24:05.440Z,13.70
2017-05-21T04:25:06.839Z,13.69
2017-05-21T04:26:08.284Z,13.70
2017-05-21T04:27:09.651Z,13.77
2017-05-21T04:28:11.046Z,13.74
2017-05-21T04:29:12.418Z,13.71
2017-05-21T04:30:13.783Z,13.73
2017-05-21T04:31:15.163Z,13.70
2017-05-21T04:32:16.518Z,13.70
2017-05-21T04:33:17.882Z,13.76
2017-05-21T04:34:19.246Z,13.73
2017-05-21T04:35:20.623Z,13.73
2017-05-21T04:36:21.985Z,13.77
2017-05-21T04:37:23.355Z,13.73
2017-05-21T04:38:24.725Z,13.74
2017-05-21T04:39:26.037Z,13.71
2017-05-21T04:40:27.407Z,13.70
2017-05-21T04:41:28.785Z,13.70
2017-05-21T04:42:30.150Z,13.73
2017-05-21T04:43:31.523Z,13.74
2017-05-21T04:44:32.895Z,13.69
2017-05-21T04:45:34.258Z,13.70
2017-05-21T04:46:35.625Z,13.71
2017-05-21T04:47:36.985Z,13.69
2017-05-21T04:48:38.361Z,13.70
2017-05-21T04:49:39.725Z,13.76
2017-05-21T04:50:41.099Z,13.79
2017-05-21T04:51:42.469Z,13.67
2017-05-21T04:52:43.830Z,13.69
2017-05-21T04:53:45.225Z,13.62
2017-05-21T04:54:46.585Z,13.74
2017-05-21T04:55:47.954Z,13.61
2017-05-21T04:56:49.316Z,13.61
2017-05-21T04:57:50.681Z,13.70
2017-05-21T04:58:52.043Z,13.71
2017-05-21T04:59:53.520Z,13.74
2017-05-21T05:00:54.836Z,13.61
2017-05-21T05:01:56.226Z,13.65
2017-05-21T05:02:57.594Z,13.71
2017-05-21T05:03:58.956Z,13.70
2017-05-21T05:05:00.326Z,13.67
2017-05-21T05:06:01.694Z,13.69
2017-05-21T05:07:03.059Z,13.61
2017-05-21T05:08:04.425Z,13.59
2017-05-21T05:09:05.795Z,13.71
2017-05-21T05:10:07.176Z,13.73
2017-05-21T05:11:08.548Z,13.73
2017-05-21T05:12:09.955Z,13.56
2017-05-21T05:13:11.333Z,13.71
2017-05-21T05:14:12.791Z,13.70
2017-05-21T05:15:14.163Z,13.73
2017-05-21T05:16:15.548Z,13.73
2017-05-21T05:17:16.966Z,13.76
2017-05-21T05:18:18.341Z,13.76
2017-05-21T05:19:19.700Z,13.83
2017-05-21T05:20:21.070Z,13.79
2017-05-21T05:21:22.479Z,13.84
2017-05-21T05:22:23.861Z,13.89
2017-05-21T05:23:25.214Z,13.83
2017-05-21T05:24:26.587Z,13.81
2017-05-21T05:25:27.955Z,13.69
2017-05-21T05:26:29.366Z,13.69
2017-05-21T05:27:30.711Z,13.70
2017-05-21T05:28:32.163Z,13.74
2017-05-21T05:29:33.531Z,13.58
2017-05-21T05:30:34.912Z,13.67
2017-05-21T05:31:36.274Z,13.76
2017-05-21T05:32:37.639Z,13.76
2017-05-21T05:33:39.059Z,13.73
2017-05-21T05:34:40.428Z,13.69
2017-05-21T05:35:41.794Z,13.76
2017-05-21T05:36:43.158Z,13.73
2017-05-21T05:37:44.527Z,13.76
2017-05-21T05:38:46.015Z,13.77
2017-05-21T05:39:47.380Z,13.73
2017-05-21T05:40:48.754Z,13.69
2017-05-21T05:41:50.121Z,13.73
2017-05-21T05:42:51.484Z,13.73
2017-05-21T05:43:52.853Z,13.71
2017-05-21T05:44:54.224Z,13.70
2017-05-21T05:45:55.596Z,13.71
2017-05-21T05:46:56.960Z,13.87
2017-05-21T05:47:58.327Z,13.80
2017-05-21T05:48:59.702Z,13.84
2017-05-21T05:50:01.071Z,13.87
2017-05-21T05:51:02.471Z,13.81
2017-05-21T05:52:04.505Z,13.77
2017-05-21T05:53:05.872Z,13.84
2017-05-21T05:54:07.237Z,13.88
2017-05-21T05:55:08.604Z,13.71
2017-05-21T05:56:09.974Z,13.80
2017-05-21T05:57:11.354Z,13.81
2017-05-21T05:58:12.717Z,13.83
2017-05-21T05:59:14.079Z,13.81
2017-05-21T06:00:15.445Z,13.80
2017-05-21T06:01:16.832Z,13.83
2017-05-21T06:02:18.331Z,13.87
2017-05-21T06:03:19.651Z,13.88
2017-05-21T06:04:21.025Z,13.87
2017-05-21T06:05:22.393Z,13.84
2017-05-21T06:06:23.798Z,13.80
2017-05-21T06:07:25.156Z,13.88
2017-05-21T06:08:26.552Z,13.89
2017-05-21T06:09:27.925Z,13.81
2017-05-21T06:10:29.321Z,13.91
2017-05-21T06:11:30.698Z,13.99
2017-05-21T06:12:32.065Z,13.92
2017-05-21T06:13:33.446Z,13.98
2017-05-21T06:14:34.828Z,13.91
2017-05-21T06:15:36.190Z,13.94
2017-05-21T06:16:37.566Z,13.91
2017-05-21T06:17:38.940Z,13.96
2017-05-21T06:18:40.360Z,13.95
2017-05-21T06:19:41.672Z,13.98
2017-05-21T06:20:43.090Z,13.96
2017-05-21T06:21:44.460Z,14.09
2017-05-21T06:22:45.827Z,14.07
2017-05-21T06:23:47.187Z,14.13
2017-05-21T06:24:48.560Z,14.01
2017-05-21T06:25:49.943Z,14.07
2017-05-21T06:26:51.337Z,14.09
2017-05-21T06:27:52.704Z,14.19
2017-05-21T06:28:54.071Z,14.27
2017-05-21T06:29:55.438Z,14.25
2017-05-21T06:30:56.805Z,14.20
2017-05-21T06:31:58.179Z,14.24
2017-05-21T06:32:59.553Z,14.21
2017-05-21T06:34:00.913Z,14.37
2017-05-21T06:35:02.291Z,14.37
2017-05-21T06:36:03.696Z,14.43
2017-05-21T06:37:05.063Z,14.56
2017-05-21T06:38:06.430Z,14.53
2017-05-21T06:39:07.803Z,14.57
2017-05-21T06:40:09.185Z,14.56
2017-05-21T06:41:10.544Z,14.52
2017-05-21T06:42:11.907Z,14.53
2017-05-21T06:43:13.280Z,14.62
2017-05-21T06:44:14.651Z,14.52
2017-05-21T06:45:16.019Z,14.54
2017-05-21T06:46:17.389Z,14.60
2017-05-21T06:47:18.766Z,14.50
2017-05-21T06:48:20.131Z,14.50
2017-05-21T06:49:21.504Z,14.50
2017-05-21T06:50:22.957Z,14.62
2017-05-21T06:51:24.339Z,14.65
2017-05-21T06:52:25.705Z,14.80
2017-05-21T06:53:27.076Z,14.71
2017-05-21T06:54:28.444Z,14.68
2017-05-21T06:55:29.819Z,14.80
2017-05-21T06:56:31.194Z,14.87
2017-05-21T06:57:32.583Z,14.87
2017-05-21T06:58:33.985Z,14.84
2017-05-21T06:59:35.359Z,15.01
2017-05-21T07:00:36.724Z,14.94
2017-05-21T07:01:38.091Z,14.98
2017-05-21T07:02:39.466Z,15.01
2017-05-21T07:03:40.843Z,14.90
2017-05-21T07:04:42.212Z,14.75
2017-05-21T07:05:43.570Z,14.81
2017-05-21T07:06:44.938Z,14.68
2017-05-21T07:07:46.311Z,14.81
2017-05-21T07:08:47.725Z,14.93
2017-05-21T07:09:49.119Z,14.99
2017-05-21T07:10:50.516Z,15.05
2017-05-21T07:11:51.889Z,14.99
2017-05-21T07:12:53.279Z,15.11
2017-05-21T07:13:54.652Z,15.11
2017-05-21T07:14:56.036Z,15.19
2017-05-21T07:15:57.414Z,15.17
2017-05-21T07:16:58.790Z,15.24
2017-05-21T07:18:00.935Z,15.21
2017-05-21T07:19:03.292Z,15.26
2017-05-21T07:20:04.657Z,15.30
2017-05-21T07:21:06.044Z,15.39
2017-05-21T07:22:07.415Z,15.38
2017-05-21T07:23:08.785Z,15.49
2017-05-21T07:24:10.157Z,15.38
2017-05-21T07:25:11.518Z,15.33
2017-05-21T07:26:12.880Z,15.09
2017-05-21T07:27:14.253Z,15.24
2017-05-21T07:28:15.623Z,15.33
2017-05-21T07:29:16.990Z,15.20
2017-05-21T07:30:18.359Z,15.41
2017-05-21T07:31:19.736Z,15.30
2017-05-21T07:32:21.103Z,15.30
2017-05-21T07:33:22.462Z,15.24
2017-05-21T07:34:23.849Z,15.31
2017-05-21T07:35:25.291Z,15.30
2017-05-21T07:36:26.671Z,15.31
2017-05-21T07:37:28.143Z,15.30
2017-05-21T07:38:29.509Z,15.49
2017-05-21T07:39:30.876Z,15.48
2017-05-21T07:40:32.282Z,15.56
2017-05-21T07:41:33.650Z,15.49
2017-05-21T07:42:35.027Z,15.39
2017-05-21T07:43:36.400Z,15.46
2017-05-21T07:44:37.778Z,15.60
2017-05-21T07:45:39.144Z,15.52
2017-05-21T07:46:40.515Z,15.56
2017-05-21T07:47:41.880Z,15.49
2017-05-21T07:48:43.249Z,15.63
2017-05-21T07:49:44.618Z,15.52
2017-05-21T07:50:46.049Z,15.72
2017-05-21T07:51:47.424Z,15.79
2017-05-21T07:52:48.809Z,15.78
2017-05-21T07:53:50.170Z,15.74
2017-05-21T07:54:51.551Z,15.64
2017-05-21T07:55:52.948Z,15.75
2017-05-21T07:56:54.384Z,15.85
2017-05-21T07:57:55.755Z,15.82
2017-05-21T07:58:57.128Z,15.84
2017-05-21T07:59:59.294Z,16.00
2017-05-21T08:01:00.684Z,16.11
2017-05-21T08:02:02.084Z,15.94
2017-05-21T08:03:03.472Z,16.11
2017-05-21T08:04:04.863Z,16.04
2017-05-21T08:05:06.232Z,15.96
2017-05-21T08:06:07.627Z,16.16
2017-05-21T08:07:09.036Z,16.20
2017-05-21T08:08:10.383Z,16.37
2017-05-21T08:09:11.785Z,16.31
2017-05-21T08:10:13.159Z,16.34
2017-05-21T08:11:14.533Z,16.41
2017-05-21T08:12:15.896Z,16.71
2017-05-21T08:13:17.294Z,16.80
2017-05-21T08:14:18.672Z,16.83
2017-05-21T08:15:20.041Z,16.71
2017-05-21T08:16:21.413Z,16.33
2017-05-21T08:17:22.800Z,16.41
2017-05-21T08:18:24.171Z,16.55
2017-05-21T08:19:25.542Z,16.42
2017-05-21T08:20:26.913Z,16.45
2017-05-21T08:21:28.280Z,16.58
2017-05-21T08:22:29.650Z,16.31
2017-05-21T08:23:31.795Z,16.40
2017-05-21T08:24:33.276Z,16.67
2017-05-21T08:25:34.618Z,16.80
2017-05-21T08:26:35.989Z,16.65
2017-05-21T08:27:37.360Z,16.75
2017-05-21T08:28:38.735Z,16.59
2017-05-21T08:29:40.097Z,16.55
2017-05-21T08:30:41.713Z,16.80
2017-05-21T08:31:43.079Z,16.81
2017-05-21T08:32:44.457Z,16.88
2017-05-21T08:33:45.854Z,16.80
2017-05-21T08:34:47.388Z,16.92
2017-05-21T08:35:48.757Z,16.99
2017-05-21T08:36:50.147Z,17.06
2017-05-21T08:37:51.522Z,17.07
2017-05-21T08:38:52.888Z,16.86
2017-05-21T08:39:54.273Z,16.88
2017-05-21T08:40:55.644Z,16.78
2017-05-21T08:41:57.020Z,16.99
2017-05-21T08:42:58.382Z,17.08
2017-05-21T08:43:59.755Z,17.28
2017-05-21T08:45:01.138Z,17.13
2017-05-21T08:46:02.501Z,17.11
2017-05-21T08:47:04.088Z,17.14
2017-05-21T08:48:05.458Z,17.25
2017-05-21T08:49:06.892Z,16.83
2017-05-21T08:50:08.297Z,16.81
2017-05-21T08:51:09.693Z,16.68
2017-05-21T08:52:11.056Z,16.81
2017-05-21T08:53:12.439Z,16.93
2017-05-21T08:54:13.803Z,16.92
2017-05-21T08:55:15.180Z,16.96
2017-05-21T08:56:16.549Z,16.89
2017-05-21T08:57:18.574Z,17.13
2017-05-21T08:58:19.945Z,17.20
2017-05-21T08:59:21.320Z,16.90
2017-05-21T09:00:22.682Z,16.89
2017-05-21T09:01:24.072Z,16.99
2017-05-21T09:02:25.444Z,16.77
2017-05-21T09:03:26.881Z,17.07
2017-05-21T09:04:28.252Z,16.93
2017-05-21T09:05:29.618Z,17.04
2017-05-21T09:06:30.994Z,16.80
2017-05-21T09:07:32.370Z,17.13
2017-05-21T09:08:33.750Z,17.15
2017-05-21T09:09:35.136Z,17.33
2017-05-21T09:10:36.571Z,17.29
2017-05-21T09:11:38.018Z,17.29
2017-05-21T09:12:39.398Z,16.92
2017-05-21T09:13:40.825Z,17.07
2017-05-21T09:14:42.202Z,17.17
2017-05-21T09:15:43.611Z,17.06
2017-05-21T09:16:44.983Z,17.40
2017-05-21T09:17:46.395Z,17.46
2017-05-21T09:18:47.988Z,17.43
2017-05-21T09:19:49.269Z,17.33
2017-05-21T09:20:50.641Z,17.38
2017-05-21T09:21:52.228Z,17.32
2017-05-21T09:22:53.772Z,17.15
2017-05-21T09:23:56.526Z,17.28
2017-05-21T09:24:57.614Z,17.41
2017-05-21T09:25:58.975Z,17.51
2017-05-21T09:27:00.357Z,17.47
2017-05-21T09:28:01.835Z,17.47
2017-05-21T09:29:03.639Z,17.55
2017-05-21T09:30:05.193Z,17.69
2017-05-21T09:31:06.634Z,17.47
2017-05-21T09:32:08.131Z,17.71
2017-05-21T09:33:09.514Z,17.82
2017-05-21T09:34:10.931Z,17.82
2017-05-21T09:35:12.611Z,17.71
2017-05-21T09:36:14.220Z,17.43
2017-05-21T09:37:15.605Z,17.44
2017-05-21T09:38:17.948Z,17.71
2017-05-21T09:39:19.765Z,17.76
2017-05-21T09:40:22.206Z,17.76
2017-05-21T09:41:23.569Z,17.69
2017-05-21T09:42:24.939Z,17.71
2017-05-21T09:43:26.601Z,17.71
2017-05-21T09:44:28.817Z,17.79
2017-05-21T09:45:30.192Z,17.63
2017-05-21T09:46:32.466Z,17.78
2017-05-21T09:47:33.854Z,17.91
2017-05-21T09:48:35.337Z,17.89
2017-05-21T09:49:37.257Z,18.04
2017-05-21T09:50:39.427Z,18.10
2017-05-21T09:51:41.352Z,17.87
2017-05-21T09:52:42.773Z,17.87
2017-05-21T09:53:44.437Z,18.10
2017-05-21T09:54:45.830Z,18.03
2017-05-21T09:55:47.203Z,18.10
2017-05-21T09:56:48.629Z,18.00
2017-05-21T09:57:49.999Z,17.99
2017-05-21T09:58:51.367Z,17.88
2017-05-21T09:59:52.780Z,18.00
2017-05-21T10:00:54.151Z,18.13
2017-05-21T10:01:55.546Z,18.15
2017-05-21T10:02:56.928Z,18.27
2017-05-21T10:03:58.988Z,18.40
2017-05-21T10:05:00.357Z,18.44
2017-05-21T10:06:01.726Z,18.36
2017-05-21T10:07:03.098Z,18.00
2017-05-21T10:08:04.473Z,18.34
2017-05-21T10:09:05.845Z,18.46
2017-05-21T10:10:07.255Z,18.54
2017-05-21T10:11:08.627Z,18.40
2017-05-21T10:12:10.078Z,18.50
2017-05-21T10:13:11.448Z,18.25
2017-05-21T10:14:12.821Z,18.25
2017-05-21T10:15:14.187Z,18.62
2017-05-21T10:16:15.572Z,18.74
2017-05-21T10:17:16.966Z,18.82
2017-05-21T10:18:18.342Z,18.95
2017-05-21T10:19:19.720Z,19.02
2017-05-21T10:20:21.110Z,18.84
2017-05-21T10:21:22.483Z,18.18
2017-05-21T10:22:23.884Z,18.46
2017-05-21T10:23:25.255Z,18.54
2017-05-21T10:24:26.620Z,18.50
2017-05-21T10:25:27.986Z,18.84
2017-05-21T10:26:29.357Z,19.08
2017-05-21T10:27:30.733Z,19.11
2017-05-21T10:28:32.194Z,19.06
2017-05-21T10:29:33.499Z,18.97
2017-05-21T10:30:34.888Z,18.97
2017-05-21T10:31:36.265Z,18.49
2017-05-21T10:32:37.631Z,18.98
2017-05-21T10:33:39.015Z,19.05
2017-05-21T10:34:40.391Z,19.17
2017-05-21T10:35:41.851Z,18.74
2017-05-21T10:36:43.220Z,19.21
2017-05-21T10:37:44.602Z,19.42
2017-05-21T10:38:46.766Z,19.13
2017-05-21T10:39:48.131Z,19.14
2017-05-21T10:40:49.569Z,19.18
2017-05-21T10:41:50.983Z,19.42
2017-05-21T10:42:52.354Z,19.24
2017-05-21T10:43:53.738Z,19.15
2017-05-21T10:44:55.121Z,19.31
2017-05-21T10:45:56.485Z,19.51
2017-05-21T10:46:57.865Z,19.47
2017-05-21T10:47:59.236Z,19.05
2017-05-21T10:49:00.618Z,19.35
2017-05-21T10:50:02.033Z,19.47
2017-05-21T10:51:03.422Z,19.15
2017-05-21T10:52:04.811Z,19.35
2017-05-21T10:53:06.179Z,19.17
2017-05-21T10:54:07.548Z,18.77
2017-05-21T10:55:08.928Z,18.92
2017-05-21T10:56:10.300Z,18.43
2017-05-21T10:57:11.664Z,18.86
2017-05-21T10:58:13.040Z,18.77
2017-05-21T10:59:14.422Z,18.99
2017-05-21T11:00:15.793Z,19.21
2017-05-21T11:01:17.164Z,19.01
2017-05-21T11:02:18.583Z,19.15
2017-05-21T11:03:19.957Z,19.05
2017-05-21T11:04:21.334Z,19.14
2017-05-21T11:05:22.706Z,19.21
2017-05-21T11:06:24.075Z,18.99
2017-05-21T11:07:25.528Z,18.91
2017-05-21T11:08:26.908Z,19.01
2017-05-21T11:09:28.330Z,19.21
2017-05-21T11:10:29.705Z,19.46
2017-05-21T11:11:31.150Z,19.42
2017-05-21T11:12:32.565Z,19.69
2017-05-21T11:13:33.992Z,19.57
2017-05-21T11:14:35.367Z,19.76
2017-05-21T11:15:36.782Z,19.68
2017-05-21T11:16:38.813Z,19.65
2017-05-21T11:17:40.197Z,19.63
2017-05-21T11:18:41.612Z,19.73
2017-05-21T11:19:42.976Z,19.69
2017-05-21T11:20:44.363Z,19.61
2017-05-21T11:21:45.769Z,19.47
2017-05-21T11:22:47.145Z,19.60
2017-05-21T11:23:48.513Z,19.75
2017-05-21T11:24:49.883Z,19.83
2017-05-21T11:25:51.331Z,19.42
2017-05-21T11:26:52.662Z,19.65
2017-05-21T11:27:54.031Z,19.84
2017-05-21T11:28:55.395Z,19.97
2017-05-21T11:29:56.815Z,19.79
2017-05-21T11:30:58.325Z,19.46
2017-05-21T11:31:59.701Z,19.28
2017-05-21T11:33:01.079Z,19.35
2017-05-21T11:34:02.460Z,19.31
2017-05-21T11:35:03.860Z,19.15
2017-05-21T11:36:05.236Z,19.42
2017-05-21T11:37:06.609Z,19.28
2017-05-21T11:38:08.051Z,19.36
2017-05-21T11:39:09.409Z,19.32
2017-05-21T11:40:10.803Z,19.13
2017-05-21T11:41:12.874Z,19.38
2017-05-21T11:42:14.995Z,19.50
2017-05-21T11:43:16.365Z,19.46
2017-05-21T11:44:17.733Z,19.29
2017-05-21T11:45:19.105Z,19.24
2017-05-21T11:46:20.471Z,19.13
2017-05-21T11:47:21.844Z,19.06
2017-05-21T11:48:24.227Z,18.72
2017-05-21T11:49:25.620Z,18.76
2017-05-21T11:50:26.985Z,18.73
2017-05-21T11:51:28.434Z,18.52
2017-05-21T11:52:29.869Z,18.67
2017-05-21T11:53:33.875Z,18.80
2017-05-21T11:54:37.821Z,18.79
2017-05-21T11:55:39.194Z,19.08
2017-05-21T11:56:40.557Z,19.24
2017-05-21T11:57:42.000Z,19.20
2017-05-21T11:58:43.327Z,19.13
2017-05-21T11:59:45.312Z,19.20
2017-05-21T12:00:46.716Z,19.28
2017-05-21T12:01:48.129Z,19.31
2017-05-21T12:02:49.519Z,19.32
2017-05-21T12:03:50.890Z,19.23
2017-05-21T12:04:52.266Z,19.29
2017-05-21T12:05:54.475Z,19.38
2017-05-21T12:06:55.873Z,19.40
2017-05-21T12:07:57.251Z,19.23
2017-05-21T12:08:58.717Z,19.13
2017-05-21T12:10:00.091Z,19.21
2017-05-21T12:11:01.474Z,19.20
2017-05-21T12:12:02.845Z,19.21
2017-05-21T12:13:04.225Z,19.51
2017-05-21T12:14:05.606Z,19.69
2017-05-21T12:15:06.974Z,19.28
2017-05-21T12:16:09.325Z,19.40
2017-05-21T12:17:10.718Z,19.72
2017-05-21T12:18:12.085Z,19.73
2017-05-21T12:19:14.318Z,19.86
2017-05-21T12:20:17.314Z,19.70
2017-05-21T12:21:18.686Z,19.86
2017-05-21T12:22:20.054Z,19.98
2017-05-21T12:23:21.445Z,19.94
2017-05-21T12:24:22.820Z,19.84
2017-05-21T12:25:24.197Z,19.86
2017-05-21T12:26:25.581Z,19.83
2017-05-21T12:27:27.700Z,20.08
2017-05-21T12:28:29.065Z,20.20
2017-05-21T12:29:30.447Z,20.09
2017-05-21T12:30:31.819Z,19.95
2017-05-21T12:31:33.201Z,19.87
2017-05-21T12:32:34.582Z,20.10
2017-05-21T12:33:35.956Z,20.34
2017-05-21T12:34:37.324Z,20.31
2017-05-21T12:35:38.693Z,20.09
2017-05-21T12:36:40.067Z,20.23
2017-05-21T12:37:41.443Z,20.02
2017-05-21T12:38:42.818Z,19.87
2017-05-21T12:39:44.187Z,20.08
2017-05-21T12:40:45.557Z,20.21
2017-05-21T12:41:46.930Z,20.06
2017-05-21T12:42:48.307Z,20.10
2017-05-21T12:43:49.670Z,20.16
2017-05-21T12:44:51.047Z,20.30
2017-05-21T12:45:52.424Z,20.46
2017-05-21T12:46:53.795Z,20.41
2017-05-21T12:47:55.826Z,20.28
2017-05-21T12:48:57.197Z,19.98
2017-05-21T12:49:58.582Z,20.09
2017-05-21T12:50:59.962Z,20.18
2017-05-21T12:52:02.276Z,20.09
2017-05-21T12:53:03.715Z,20.21
2017-05-21T12:54:05.119Z,20.25
2017-05-21T12:55:06.494Z,20.31
2017-05-21T12:56:07.864Z,20.09
2017-05-21T12:57:09.238Z,20.09
2017-05-21T12:58:10.609Z,19.93
2017-05-21T12:59:11.982Z,20.00
2017-05-21T13:00:13.376Z,19.95
2017-05-21T13:01:15.488Z,19.98
2017-05-21T13:02:16.847Z,19.93
2017-05-21T13:03:18.237Z,19.93
2017-05-21T13:04:19.613Z,20.10
2017-05-21T13:05:21.074Z,20.10
2017-05-21T13:06:22.447Z,20.06
2017-05-21T13:07:24.348Z,19.78
2017-05-21T13:08:25.770Z,19.87
2017-05-21T13:09:27.196Z,19.76
2017-05-21T13:10:28.597Z,19.75
2017-05-21T13:11:29.953Z,19.87